Beloeil, Belgium
Current Conditions -  °F | °C
As of 1:25 PM on Saturday 20 Dec 2014 (Local Time) from EBCV Reporting Station
Overcast Overcast  
Wind Chill: 40°   Ceiling: 4700
Heat Index: 46°   Visibility: 6mi
Dew Point: 37°   Wind: 15mph
Humidity: 71%   Direction: 270°W
Pressure: 30.3"   Gusts: NA
Location:  50.55°N, 3.73°E
Report Text: EBCV 201225Z AUTO 27013KT 9999 OVC047/// 08/03 Q1026 BLU
Loading
Personal Weather Stations






























Interactive Weather Map New forecast layout! Learn more

10-Day Weather Forecast

Advertisements
Track Severe Weather on mobile